sensor_id;sensor_type;location;lat;lon;timestamp;temperature;humidity
25320;DHT22;13256;49.012;8.610;2023-08-01T00:00:51;18.50;99.90
25320;DHT22;13256;49.012;8.610;2023-08-01T00:03:23;18.50;99.90
25320;DHT22;13256;49.012;8.610;2023-08-01T00:05:53;18.50;99.90
25320;DHT22;13256;49.012;8.610;2023-08-01T00:08:29;18.50;99.90
25320;DHT22;13256;49.012;8.610;2023-08-01T00:14:23;18.50;99.90
25320;DHT22;13256;49.012;8.610;2023-08-01T00:17:00;18.50;99.90
25320;DHT22;13256;49.012;8.610;2023-08-01T00:19:30;18.50;99.90
25320;DHT22;13256;49.012;8.610;2023-08-01T00:21:57;18.50;99.90
25320;DHT22;13256;49.012;8.610;2023-08-01T00:24:27;18.40;99.90
25320;DHT22;13256;49.012;8.610;2023-08-01T00:26:56;18.40;99.90
25320;DHT22;13256;49.012;8.610;2023-08-01T00:29:29;18.30;99.90
25320;DHT22;13256;49.012;8.610;2023-08-01T00:32:00;18.30;99.90
25320;DHT22;13256;49.012;8.610;2023-08-01T00:34:31;18.30;99.90
25320;DHT22;13256;49.012;8.610;2023-08-01T00:36:59;18.30;99.90
25320;DHT22;13256;49.012;8.610;2023-08-01T00:39:53;18.20;99.90
25320;DHT22;13256;49.012;8.610;2023-08-01T00:42:24;18.20;99.90
25320;DHT22;13256;49.012;8.610;2023-08-01T00:44:53;18.20;99.90
25320;DHT22;13256;49.012;8.610;2023-08-01T00:47:25;18.10;99.90
25320;DHT22;13256;49.012;8.610;2023-08-01T00:49:55;18.10;99.90
25320;DHT22;13256;49.012;8.610;2023-08-01T00:52:25;18.10;99.90
25320;DHT22;13256;49.012;8.610;2023-08-01T00:54:56;18.10;99.90
25320;DHT22;13256;49.012;8.610;2023-08-01T00:57:25;18.00;99.90
25320;DHT22;13256;49.012;8.610;2023-08-01T00:59:52;18.00;99.90
25320;DHT22;13256;49.012;8.610;2023-08-01T01:02:23;18.00;99.90
25320;DHT22;13256;49.012;8.610;2023-08-01T01:04:51;18.00;99.90
25320;DHT22;13256;49.012;8.610;2023-08-01T01:07:20;18.00;99.90
25320;DHT22;13256;49.012;8.610;2023-08-01T01:09:52;18.00;99.90
25320;DHT22;13256;49.012;8.610;2023-08-01T01:12:25;18.00;99.90
25320;DHT22;13256;49.012;8.610;2023-08-01T01:14:57;18.10;99.90
25320;DHT22;13256;49.012;8.610;2023-08-01T01:17:24;18.20;99.90
25320;DHT22;13256;49.012;8.610;2023-08-01T01:19:53;18.20;99.90
25320;DHT22;13256;49.012;8.610;2023-08-01T01:22:21;18.20;99.90
25320;DHT22;13256;49.012;8.610;2023-08-01T01:24:55;18.20;99.90
25320;DHT22;13256;49.012;8.610;2023-08-01T01:27:27;18.10;99.90
25320;DHT22;13256;49.012;8.610;2023-08-01T01:29:57;18.20;99.90
25320;DHT22;13256;49.012;8.610;2023-08-01T01:32:27;18.10;99.90
25320;DHT22;13256;49.012;8.610;2023-08-01T01:34:57;18.10;99.90
25320;DHT22;13256;49.012;8.610;2023-08-01T01:37:51;18.10;99.90
25320;DHT22;13256;49.012;8.610;2023-08-01T01:40:21;18.10;99.90
25320;DHT22;13256;49.012;8.610;2023-08-01T01:42:51;18.10;99.90
25320;DHT22;13256;49.012;8.610;2023-08-01T01:45:40;18.10;99.90
25320;DHT22;13256;49.012;8.610;2023-08-01T01:48:11;18.00;99.90
25320;DHT22;13256;49.012;8.610;2023-08-01T01:50:38;18.00;99.90
25320;DHT22;13256;49.012;8.610;2023-08-01T01:53:06;18.00;99.90
25320;DHT22;13256;49.012;8.610;2023-08-01T01:55:34;18.00;99.90
25320;DHT22;13256;49.012;8.610;2023-08-01T01:58:07;18.00;99.90
25320;DHT22;13256;49.012;8.610;2023-08-01T02:00:35;18.00;99.90
25320;DHT22;13256;49.012;8.610;2023-08-01T02:03:08;18.00;99.90
25320;DHT22;13256;49.012;8.610;2023-08-01T02:05:39;17.90;99.90
25320;DHT22;13256;49.012;8.610;2023-08-01T02:08:10;17.90;99.90
25320;DHT22;13256;49.012;8.610;2023-08-01T02:10:39;17.90;99.90
25320;DHT22;13256;49.012;8.610;2023-08-01T02:16:34;17.90;99.90
25320;DHT22;13256;49.012;8.610;2023-08-01T02:20:23;17.80;99.90
25320;DHT22;13256;49.012;8.610;2023-08-01T02:23:43;17.80;99.90
25320;DHT22;13256;49.012;8.610;2023-08-01T02:31:08;17.80;99.90
25320;DHT22;13256;49.012;8.610;2023-08-01T02:38:00;17.90;99.90
25320;DHT22;13256;49.012;8.610;2023-08-01T02:41:31;17.90;99.90
25320;DHT22;13256;49.012;8.610;2023-08-01T02:53:00;18.00;99.90
25320;DHT22;13256;49.012;8.610;2023-08-01T03:04:22;18.10;99.90
25320;DHT22;13256;49.012;8.610;2023-08-01T03:07:58;18.00;99.90
25320;DHT22;13256;49.012;8.610;2023-08-01T03:15:42;18.10;99.90
25320;DHT22;13256;49.012;8.610;2023-08-01T03:23:08;18.10;99.90
25320;DHT22;13256;49.012;8.610;2023-08-01T03:27:17;18.20;99.90
25320;DHT22;13256;49.012;8.610;2023-08-01T03:34:38;18.20;99.90
25320;DHT22;13256;49.012;8.610;2023-08-01T03:37:08;18.20;99.90
25320;DHT22;13256;49.012;8.610;2023-08-01T03:39:37;18.20;99.90
25320;DHT22;13256;49.012;8.610;2023-08-01T03:42:11;18.20;99.90
25320;DHT22;13256;49.012;8.610;2023-08-01T03:44:39;18.20;99.90
25320;DHT22;13256;49.012;8.610;2023-08-01T03:47:08;18.20;99.90
25320;DHT22;13256;49.012;8.610;2023-08-01T03:49:35;18.30;99.90
25320;DHT22;13256;49.012;8.610;2023-08-01T03:52:06;18.30;99.90
25320;DHT22;13256;49.012;8.610;2023-08-01T03:54:37;18.30;99.90
25320;DHT22;13256;49.012;8.610;2023-08-01T03:57:05;18.30;99.90
25320;DHT22;13256;49.012;8.610;2023-08-01T03:59:34;18.20;99.90
25320;DHT22;13256;49.012;8.610;2023-08-01T04:02:32;18.30;99.90
25320;DHT22;13256;49.012;8.610;2023-08-01T04:05:04;18.20;99.90
25320;DHT22;13256;49.012;8.610;2023-08-01T04:07:37;18.20;99.90
25320;DHT22;13256;49.012;8.610;2023-08-01T04:10:05;18.20;99.90
25320;DHT22;13256;49.012;8.610;2023-08-01T04:13:00;18.20;99.90
25320;DHT22;13256;49.012;8.610;2023-08-01T04:15:28;18.20;99.90
25320;DHT22;13256;49.012;8.610;2023-08-01T04:17:57;18.20;99.90
25320;DHT22;13256;49.012;8.610;2023-08-01T04:20:27;18.20;99.90
25320;DHT22;13256;49.012;8.610;2023-08-01T04:22:56;18.20;99.90
25320;DHT22;13256;49.012;8.610;2023-08-01T04:25:50;18.20;99.90
25320;DHT22;13256;49.012;8.610;2023-08-01T04:28:17;18.20;99.90
25320;DHT22;13256;49.012;8.610;2023-08-01T04:30:52;18.20;99.90
25320;DHT22;13256;49.012;8.610;2023-08-01T04:33:24;18.20;99.90
25320;DHT22;13256;49.012;8.610;2023-08-01T04:35:54;18.10;99.90
25320;DHT22;13256;49.012;8.610;2023-08-01T04:38:25;18.10;99.90
25320;DHT22;13256;49.012;8.610;2023-08-01T04:40:53;18.10;99.90
25320;DHT22;13256;49.012;8.610;2023-08-01T04:43:22;18.10;99.90
25320;DHT22;13256;49.012;8.610;2023-08-01T04:45:49;18.00;99.90
25320;DHT22;13256;49.012;8.610;2023-08-01T04:48:16;18.00;99.90
25320;DHT22;13256;49.012;8.610;2023-08-01T04:50:43;18.00;99.90
25320;DHT22;13256;49.012;8.610;2023-08-01T04:53:12;18.00;99.90
25320;DHT22;13256;49.012;8.610;2023-08-01T04:55:41;18.10;99.90
25320;DHT22;13256;49.012;8.610;2023-08-01T04:58:09;18.10;99.90
25320;DHT22;13256;49.012;8.610;2023-08-01T05:00:38;18.10;99.90
25320;DHT22;13256;49.012;8.610;2023-08-01T05:03:10;18.10;99.90
25320;DHT22;13256;49.012;8.610;2023-08-01T05:05:38;18.10;99.90
25320;DHT22;13256;49.012;8.610;2023-08-01T05:08:07;18.10;99.90
25320;DHT22;13256;49.012;8.610;2023-08-01T05:10:37;18.10;99.90
25320;DHT22;13256;49.012;8.610;2023-08-01T05:13:09;18.10;99.90
25320;DHT22;13256;49.012;8.610;2023-08-01T05:15:40;18.00;99.90
25320;DHT22;13256;49.012;8.610;2023-08-01T05:18:12;18.00;99.90
25320;DHT22;13256;49.012;8.610;2023-08-01T05:20:56;18.00;99.90
25320;DHT22;13256;49.012;8.610;2023-08-01T05:23:27;18.00;99.90
25320;DHT22;13256;49.012;8.610;2023-08-01T05:25:55;18.00;99.90
25320;DHT22;13256;49.012;8.610;2023-08-01T05:28:22;18.00;99.90
25320;DHT22;13256;49.012;8.610;2023-08-01T05:30:48;18.10;99.90
25320;DHT22;13256;49.012;8.610;2023-08-01T05:33:16;18.10;99.90
25320;DHT22;13256;49.012;8.610;2023-08-01T05:35:46;18.10;99.90
25320;DHT22;13256;49.012;8.610;2023-08-01T05:38:15;18.10;99.90
25320;DHT22;13256;49.012;8.610;2023-08-01T05:40:44;18.10;99.90
25320;DHT22;13256;49.012;8.610;2023-08-01T05:43:15;18.10;99.90
25320;DHT22;13256;49.012;8.610;2023-08-01T05:45:41;18.10;99.90
25320;DHT22;13256;49.012;8.610;2023-08-01T05:48:14;18.10;99.90
25320;DHT22;13256;49.012;8.610;2023-08-01T05:50:44;18.10;99.90
25320;DHT22;13256;49.012;8.610;2023-08-01T05:53:15;18.10;99.90
25320;DHT22;13256;49.012;8.610;2023-08-01T05:55:47;18.10;99.90
25320;DHT22;13256;49.012;8.610;2023-08-01T05:58:19;18.00;99.90
25320;DHT22;13256;49.012;8.610;2023-08-01T06:00:47;18.00;99.90
25320;DHT22;13256;49.012;8.610;2023-08-01T06:03:15;18.00;99.90
25320;DHT22;13256;49.012;8.610;2023-08-01T06:05:45;17.90;99.90
25320;DHT22;13256;49.012;8.610;2023-08-01T06:08:14;17.90;99.90
25320;DHT22;13256;49.012;8.610;2023-08-01T06:10:43;17.80;99.90
25320;DHT22;13256;49.012;8.610;2023-08-01T06:13:11;17.70;99.90
25320;DHT22;13256;49.012;8.610;2023-08-01T06:15:38;17.70;99.90
25320;DHT22;13256;49.012;8.610;2023-08-01T06:18:30;17.60;99.90
25320;DHT22;13256;49.012;8.610;2023-08-01T06:20:58;17.50;99.90
25320;DHT22;13256;49.012;8.610;2023-08-01T06:23:24;17.50;99.90
25320;DHT22;13256;49.012;8.610;2023-08-01T06:25:51;17.40;99.90
25320;DHT22;13256;49.012;8.610;2023-08-01T06:28:18;17.40;99.90
25320;DHT22;13256;49.012;8.610;2023-08-01T06:30:47;17.40;99.90
25320;DHT22;13256;49.012;8.610;2023-08-01T06:33:14;17.40;99.90
25320;DHT22;13256;49.012;8.610;2023-08-01T06:35:45;17.30;99.90
25320;DHT22;13256;49.012;8.610;2023-08-01T06:38:13;17.30;99.90
25320;DHT22;13256;49.012;8.610;2023-08-01T06:40:44;17.30;99.90
25320;DHT22;13256;49.012;8.610;2023-08-01T06:43:12;17.30;99.90
25320;DHT22;13256;49.012;8.610;2023-08-01T06:45:46;17.30;99.90
25320;DHT22;13256;49.012;8.610;2023-08-01T06:48:15;17.30;99.90
25320;DHT22;13256;49.012;8.610;2023-08-01T06:51:11;17.40;99.90
25320;DHT22;13256;49.012;8.610;2023-08-01T06:53:39;17.40;99.90
25320;DHT22;13256;49.012;8.610;2023-08-01T06:56:19;17.40;99.90
25320;DHT22;13256;49.012;8.610;2023-08-01T06:58:48;17.40;99.90
25320;DHT22;13256;49.012;8.610;2023-08-01T07:01:42;17.40;99.90
25320;DHT22;13256;49.012;8.610;2023-08-01T07:04:19;17.40;99.90
25320;DHT22;13256;49.012;8.610;2023-08-01T07:06:47;17.40;99.90
25320;DHT22;13256;49.012;8.610;2023-08-01T07:09:14;17.40;99.90
25320;DHT22;13256;49.012;8.610;2023-08-01T07:11:44;17.40;99.90
25320;DHT22;13256;49.012;8.610;2023-08-01T07:14:14;17.50;99.90
25320;DHT22;13256;49.012;8.610;2023-08-01T07:16:41;17.50;99.90
25320;DHT22;13256;49.012;8.610;2023-08-01T07:19:09;17.50;99.90
25320;DHT22;13256;49.012;8.610;2023-08-01T07:21:39;17.60;99.90
25320;DHT22;13256;49.012;8.610;2023-08-01T07:24:15;17.60;99.90
25320;DHT22;13256;49.012;8.610;2023-08-01T07:26:46;17.70;99.90
25320;DHT22;13256;49.012;8.610;2023-08-01T07:29:13;17.70;99.90
25320;DHT22;13256;49.012;8.610;2023-08-01T07:31:48;17.80;99.90
25320;DHT22;13256;49.012;8.610;2023-08-01T07:34:16;17.80;99.90
25320;DHT22;13256;49.012;8.610;2023-08-01T07:36:49;17.80;99.90
25320;DHT22;13256;49.012;8.610;2023-08-01T07:39:20;17.80;99.90
25320;DHT22;13256;49.012;8.610;2023-08-01T07:41:51;17.80;99.90
25320;DHT22;13256;49.012;8.610;2023-08-01T07:44:32;17.90;99.90
25320;DHT22;13256;49.012;8.610;2023-08-01T07:46:59;17.90;99.90
25320;DHT22;13256;49.012;8.610;2023-08-01T07:49:31;17.90;99.90
25320;DHT22;13256;49.012;8.610;2023-08-01T07:51:57;17.90;99.90
25320;DHT22;13256;49.012;8.610;2023-08-01T07:54:28;17.80;99.90
25320;DHT22;13256;49.012;8.610;2023-08-01T07:56:58;17.90;99.90
25320;DHT22;13256;49.012;8.610;2023-08-01T07:59:25;17.90;99.90
25320;DHT22;13256;49.012;8.610;2023-08-01T08:01:53;17.90;99.90
25320;DHT22;13256;49.012;8.610;2023-08-01T08:04:23;17.90;99.90
25320;DHT22;13256;49.012;8.610;2023-08-01T08:06:51;18.00;99.90
25320;DHT22;13256;49.012;8.610;2023-08-01T08:09:22;18.00;99.90
25320;DHT22;13256;49.012;8.610;2023-08-01T08:12:01;18.00;99.90
25320;DHT22;13256;49.012;8.610;2023-08-01T08:14:31;18.00;99.90
25320;DHT22;13256;49.012;8.610;2023-08-01T08:17:04;18.00;99.90
25320;DHT22;13256;49.012;8.610;2023-08-01T08:19:32;18.00;99.90
25320;DHT22;13256;49.012;8.610;2023-08-01T08:22:11;18.00;99.90
25320;DHT22;13256;49.012;8.610;2023-08-01T08:24:38;18.00;99.90
25320;DHT22;13256;49.012;8.610;2023-08-01T08:27:11;17.90;99.90
25320;DHT22;13256;49.012;8.610;2023-08-01T08:29:43;17.90;99.90
25320;DHT22;13256;49.012;8.610;2023-08-01T08:32:10;18.00;99.90
25320;DHT22;13256;49.012;8.610;2023-08-01T08:34:38;17.90;99.90
25320;DHT22;13256;49.012;8.610;2023-08-01T08:37:37;17.90;99.90
25320;DHT22;13256;49.012;8.610;2023-08-01T08:40:07;17.90;99.90
25320;DHT22;13256;49.012;8.610;2023-08-01T08:43:19;17.90;99.90
25320;DHT22;13256;49.012;8.610;2023-08-01T08:45:49;17.90;99.90
25320;DHT22;13256;49.012;8.610;2023-08-01T08:48:18;17.80;99.90
25320;DHT22;13256;49.012;8.610;2023-08-01T08:50:46;17.80;99.90
25320;DHT22;13256;49.012;8.610;2023-08-01T08:53:20;17.80;99.90
25320;DHT22;13256;49.012;8.610;2023-08-01T08:55:51;17.80;99.90
25320;DHT22;13256;49.012;8.610;2023-08-01T08:58:24;17.80;99.90
25320;DHT22;13256;49.012;8.610;2023-08-01T09:00:51;17.90;99.90
25320;DHT22;13256;49.012;8.610;2023-08-01T09:03:23;17.90;99.90
25320;DHT22;13256;49.012;8.610;2023-08-01T09:06:05;18.00;99.90
25320;DHT22;13256;49.012;8.610;2023-08-01T09:08:36;18.00;99.90
25320;DHT22;13256;49.012;8.610;2023-08-01T09:11:06;18.00;99.90
25320;DHT22;13256;49.012;8.610;2023-08-01T09:13:36;18.10;99.90
25320;DHT22;13256;49.012;8.610;2023-08-01T09:16:06;18.10;99.90
25320;DHT22;13256;49.012;8.610;2023-08-01T09:19:00;18.20;99.90
25320;DHT22;13256;49.012;8.610;2023-08-01T09:21:56;18.40;99.90
25320;DHT22;13256;49.012;8.610;2023-08-01T09:24:27;18.50;99.90
25320;DHT22;13256;49.012;8.610;2023-08-01T09:27:02;18.70;99.90
25320;DHT22;13256;49.012;8.610;2023-08-01T09:29:36;18.90;99.90
25320;DHT22;13256;49.012;8.610;2023-08-01T09:32:13;19.20;99.90
25320;DHT22;13256;49.012;8.610;2023-08-01T09:34:42;19.30;99.90
25320;DHT22;13256;49.012;8.610;2023-08-01T09:37:15;19.40;99.90
25320;DHT22;13256;49.012;8.610;2023-08-01T09:39:55;19.40;99.90
25320;DHT22;13256;49.012;8.610;2023-08-01T09:42:26;19.30;99.90
25320;DHT22;13256;49.012;8.610;2023-08-01T09:44:53;19.30;99.90
25320;DHT22;13256;49.012;8.610;2023-08-01T09:47:22;19.40;99.90
25320;DHT22;13256;49.012;8.610;2023-08-01T09:49:52;19.50;99.90
25320;DHT22;13256;49.012;8.610;2023-08-01T09:52:27;19.70;99.90
25320;DHT22;13256;49.012;8.610;2023-08-01T09:54:54;19.80;99.90
25320;DHT22;13256;49.012;8.610;2023-08-01T09:57:22;19.90;99.90
25320;DHT22;13256;49.012;8.610;2023-08-01T09:59:52;20.00;99.90
25320;DHT22;13256;49.012;8.610;2023-08-01T10:02:21;20.10;99.90
25320;DHT22;13256;49.012;8.610;2023-08-01T10:04:53;20.20;99.90
25320;DHT22;13256;49.012;8.610;2023-08-01T10:07:26;20.30;99.90
25320;DHT22;13256;49.012;8.610;2023-08-01T10:09:54;20.30;99.90
25320;DHT22;13256;49.012;8.610;2023-08-01T10:12:27;20.40;99.90
25320;DHT22;13256;49.012;8.610;2023-08-01T10:14:58;20.70;99.90
25320;DHT22;13256;49.012;8.610;2023-08-01T10:17:34;20.80;99.90
25320;DHT22;13256;49.012;8.610;2023-08-01T10:20:10;20.80;99.90
25320;DHT22;13256;49.012;8.610;2023-08-01T10:22:39;20.60;99.90
25320;DHT22;13256;49.012;8.610;2023-08-01T10:25:09;20.70;99.90
25320;DHT22;13256;49.012;8.610;2023-08-01T10:27:39;20.80;99.90
25320;DHT22;13256;49.012;8.610;2023-08-01T10:30:09;20.90;99.90
25320;DHT22;13256;49.012;8.610;2023-08-01T10:32:39;21.10;99.90
25320;DHT22;13256;49.012;8.610;2023-08-01T10:35:13;21.40;99.90
25320;DHT22;13256;49.012;8.610;2023-08-01T10:40:57;21.10;99.90
25320;DHT22;13256;49.012;8.610;2023-08-01T10:43:41;21.30;99.90
25320;DHT22;13256;49.012;8.610;2023-08-01T10:49:34;21.80;99.90
25320;DHT22;13256;49.012;8.610;2023-08-01T10:52:35;22.00;99.90
25320;DHT22;13256;49.012;8.610;2023-08-01T10:55:02;21.90;99.90
25320;DHT22;13256;49.012;8.610;2023-08-01T10:57:34;21.90;99.90
25320;DHT22;13256;49.012;8.610;2023-08-01T11:00:03;22.10;99.90
25320;DHT22;13256;49.012;8.610;2023-08-01T11:02:49;22.30;99.90
25320;DHT22;13256;49.012;8.610;2023-08-01T11:05:19;22.60;99.90
25320;DHT22;13256;49.012;8.610;2023-08-01T11:08:07;22.40;99.90
25320;DHT22;13256;49.012;8.610;2023-08-01T11:10:34;22.70;99.90
25320;DHT22;13256;49.012;8.610;2023-08-01T11:13:03;22.80;99.90
25320;DHT22;13256;49.012;8.610;2023-08-01T11:15:38;22.80;99.90
25320;DHT22;13256;49.012;8.610;2023-08-01T11:18:10;22.80;99.90
25320;DHT22;13256;49.012;8.610;2023-08-01T11:20:38;22.80;99.90
25320;DHT22;13256;49.012;8.610;2023-08-01T11:23:18;22.70;99.90
25320;DHT22;13256;49.012;8.610;2023-08-01T11:25:58;22.50;99.90
25320;DHT22;13256;49.012;8.610;2023-08-01T11:28:27;22.70;99.90
25320;DHT22;13256;49.012;8.610;2023-08-01T11:31:13;22.60;99.90
25320;DHT22;13256;49.012;8.610;2023-08-01T11:33:54;22.40;99.90
25320;DHT22;13256;49.012;8.610;2023-08-01T11:36:30;22.30;99.90
25320;DHT22;13256;49.012;8.610;2023-08-01T11:39:01;22.10;99.90
25320;DHT22;13256;49.012;8.610;2023-08-01T11:41:29;22.00;99.90
25320;DHT22;13256;49.012;8.610;2023-08-01T11:44:06;22.00;99.90
25320;DHT22;13256;49.012;8.610;2023-08-01T11:46:38;22.20;99.90
25320;DHT22;13256;49.012;8.610;2023-08-01T11:49:56;22.50;99.90
25320;DHT22;13256;49.012;8.610;2023-08-01T11:52:27;23.00;99.90
25320;DHT22;13256;49.012;8.610;2023-08-01T11:55:00;23.20;99.90
25320;DHT22;13256;49.012;8.610;2023-08-01T11:57:27;23.40;99.90
25320;DHT22;13256;49.012;8.610;2023-08-01T11:59:55;23.70;99.90
25320;DHT22;13256;49.012;8.610;2023-08-01T12:02:26;24.00;99.90
25320;DHT22;13256;49.012;8.610;2023-08-01T12:04:54;24.20;99.90
25320;DHT22;13256;49.012;8.610;2023-08-01T12:07:25;24.20;99.90
25320;DHT22;13256;49.012;8.610;2023-08-01T12:10:00;23.80;99.90
25320;DHT22;13256;49.012;8.610;2023-08-01T12:12:30;23.80;99.90
25320;DHT22;13256;49.012;8.610;2023-08-01T12:15:04;23.90;99.90
25320;DHT22;13256;49.012;8.610;2023-08-01T12:17:33;24.10;99.90
25320;DHT22;13256;49.012;8.610;2023-08-01T12:20:04;24.20;99.90
25320;DHT22;13256;49.012;8.610;2023-08-01T12:22:33;24.60;99.90
25320;DHT22;13256;49.012;8.610;2023-08-01T12:25:06;25.00;99.90
25320;DHT22;13256;49.012;8.610;2023-08-01T12:27:36;24.80;99.90
25320;DHT22;13256;49.012;8.610;2023-08-01T12:30:03;24.90;99.90
25320;DHT22;13256;49.012;8.610;2023-08-01T12:32:32;24.50;99.90
25320;DHT22;13256;49.012;8.610;2023-08-01T12:35:01;24.00;99.90
25320;DHT22;13256;49.012;8.610;2023-08-01T12:37:32;24.00;99.90
25320;DHT22;13256;49.012;8.610;2023-08-01T12:40:04;24.00;99.90
25320;DHT22;13256;49.012;8.610;2023-08-01T12:42:32;24.10;99.90
25320;DHT22;13256;49.012;8.610;2023-08-01T12:44:59;24.10;99.90
25320;DHT22;13256;49.012;8.610;2023-08-01T12:47:34;24.20;99.90
25320;DHT22;13256;49.012;8.610;2023-08-01T12:50:02;24.60;99.90
25320;DHT22;13256;49.012;8.610;2023-08-01T12:52:35;25.10;99.90
25320;DHT22;13256;49.012;8.610;2023-08-01T12:55:03;25.50;99.90
25320;DHT22;13256;49.012;8.610;2023-08-01T12:57:41;25.50;99.90
25320;DHT22;13256;49.012;8.610;2023-08-01T13:00:15;25.50;99.90
25320;DHT22;13256;49.012;8.610;2023-08-01T13:02:44;25.90;99.90
25320;DHT22;13256;49.012;8.610;2023-08-01T13:05:18;25.70;97.50
25320;DHT22;13256;49.012;8.610;2023-08-01T13:07:50;25.20;98.20
25320;DHT22;13256;49.012;8.610;2023-08-01T13:10:17;24.70;98.10
25320;DHT22;13256;49.012;8.610;2023-08-01T13:12:48;24.40;98.90
25320;DHT22;13256;49.012;8.610;2023-08-01T13:15:29;24.30;99.90
25320;DHT22;13256;49.012;8.610;2023-08-01T13:17:57;24.70;99.90
25320;DHT22;13256;49.012;8.610;2023-08-01T13:23:54;25.30;98.00
25320;DHT22;13256;49.012;8.610;2023-08-01T13:26:25;25.30;97.90
25320;DHT22;13256;49.012;8.610;2023-08-01T13:28:53;25.00;97.30
25320;DHT22;13256;49.012;8.610;2023-08-01T13:31:20;25.00;99.30
25320;DHT22;13256;49.012;8.610;2023-08-01T13:33:47;24.90;96.60
25320;DHT22;13256;49.012;8.610;2023-08-01T13:36:19;25.00;99.50
25320;DHT22;13256;49.012;8.610;2023-08-01T13:38:46;25.40;97.90
25320;DHT22;13256;49.012;8.610;2023-08-01T13:41:14;25.20;96.50
25320;DHT22;13256;49.012;8.610;2023-08-01T13:43:44;25.20;98.70
25320;DHT22;13256;49.012;8.610;2023-08-01T13:46:17;25.50;98.70
25320;DHT22;13256;49.012;8.610;2023-08-01T13:49:06;25.70;96.60
25320;DHT22;13256;49.012;8.610;2023-08-01T13:51:34;25.60;98.00
25320;DHT22;13256;49.012;8.610;2023-08-01T13:54:03;25.60;96.40
25320;DHT22;13256;49.012;8.610;2023-08-01T13:56:32;25.60;97.00
25320;DHT22;13256;49.012;8.610;2023-08-01T13:59:01;25.50;96.50
25320;DHT22;13256;49.012;8.610;2023-08-01T14:01:31;25.20;96.60
25320;DHT22;13256;49.012;8.610;2023-08-01T14:03:57;25.20;96.80
25320;DHT22;13256;49.012;8.610;2023-08-01T14:06:25;25.10;96.50
25320;DHT22;13256;49.012;8.610;2023-08-01T14:08:54;25.00;97.00
25320;DHT22;13256;49.012;8.610;2023-08-01T14:11:22;24.80;97.20
25320;DHT22;13256;49.012;8.610;2023-08-01T14:13:51;24.90;97.70
25320;DHT22;13256;49.012;8.610;2023-08-01T14:16:23;25.20;95.70
25320;DHT22;13256;49.012;8.610;2023-08-01T14:18:52;25.10;95.30
25320;DHT22;13256;49.012;8.610;2023-08-01T14:21:20;24.90;96.10
25320;DHT22;13256;49.012;8.610;2023-08-01T14:23:52;25.00;96.00
25320;DHT22;13256;49.012;8.610;2023-08-01T14:26:25;25.20;96.50
25320;DHT22;13256;49.012;8.610;2023-08-01T14:28:57;24.90;95.00
25320;DHT22;13256;49.012;8.610;2023-08-01T14:31:25;25.00;97.00
25320;DHT22;13256;49.012;8.610;2023-08-01T14:33:55;25.30;98.10
25320;DHT22;13256;49.012;8.610;2023-08-01T14:36:24;25.70;96.00
25320;DHT22;13256;49.012;8.610;2023-08-01T14:38:54;25.70;94.40
25320;DHT22;13256;49.012;8.610;2023-08-01T14:41:33;25.70;95.70
25320;DHT22;13256;49.012;8.610;2023-08-01T14:44:25;25.90;96.70
25320;DHT22;13256;49.012;8.610;2023-08-01T14:46:54;26.30;94.50
25320;DHT22;13256;49.012;8.610;2023-08-01T14:49:23;26.40;93.70
25320;DHT22;13256;49.012;8.610;2023-08-01T14:51:52;26.40;94.00
25320;DHT22;13256;49.012;8.610;2023-08-01T14:54:21;26.50;93.10
25320;DHT22;13256;49.012;8.610;2023-08-01T14:57:06;26.20;93.60
25320;DHT22;13256;49.012;8.610;2023-08-01T14:59:33;26.20;94.60
25320;DHT22;13256;49.012;8.610;2023-08-01T15:02:07;26.00;93.10
25320;DHT22;13256;49.012;8.610;2023-08-01T15:04:39;25.80;93.60
25320;DHT22;13256;49.012;8.610;2023-08-01T15:07:11;25.80;94.30
25320;DHT22;13256;49.012;8.610;2023-08-01T15:09:42;25.60;94.20
25320;DHT22;13256;49.012;8.610;2023-08-01T15:12:10;25.40;95.80
25320;DHT22;13256;49.012;8.610;2023-08-01T15:14:37;25.60;95.30
25320;DHT22;13256;49.012;8.610;2023-08-01T15:17:05;25.40;94.60
25320;DHT22;13256;49.012;8.610;2023-08-01T15:19:32;25.50;95.40
25320;DHT22;13256;49.012;8.610;2023-08-01T15:22:04;25.30;95.20
25320;DHT22;13256;49.012;8.610;2023-08-01T15:24:40;25.20;96.70
25320;DHT22;13256;49.012;8.610;2023-08-01T15:30:04;24.80;95.80
25320;DHT22;13256;49.012;8.610;2023-08-01T15:32:34;24.90;96.90
25320;DHT22;13256;49.012;8.610;2023-08-01T15:35:05;24.80;95.90
25320;DHT22;13256;49.012;8.610;2023-08-01T15:37:34;24.80;95.50
25320;DHT22;13256;49.012;8.610;2023-08-01T15:40:01;25.00;95.70
25320;DHT22;13256;49.012;8.610;2023-08-01T15:42:31;25.00;94.20
25320;DHT22;13256;49.012;8.610;2023-08-01T15:45:00;24.90;95.10
25320;DHT22;13256;49.012;8.610;2023-08-01T15:47:27;24.80;95.30
25320;DHT22;13256;49.012;8.610;2023-08-01T15:49:54;24.70;93.90
25320;DHT22;13256;49.012;8.610;2023-08-01T15:52:20;24.60;93.90
25320;DHT22;13256;49.012;8.610;2023-08-01T15:54:50;24.60;94.70
25320;DHT22;13256;49.012;8.610;2023-08-01T15:57:19;24.60;94.60
25320;DHT22;13256;49.012;8.610;2023-08-01T15:59:46;24.50;93.80
25320;DHT22;13256;49.012;8.610;2023-08-01T16:02:13;24.30;94.50
25320;DHT22;13256;49.012;8.610;2023-08-01T16:04:41;24.00;94.90
25320;DHT22;13256;49.012;8.610;2023-08-01T16:07:11;24.00;96.50
25320;DHT22;13256;49.012;8.610;2023-08-01T16:09:38;24.00;95.80
25320;DHT22;13256;49.012;8.610;2023-08-01T16:12:10;24.00;96.20
25320;DHT22;13256;49.012;8.610;2023-08-01T16:14:44;24.00;94.90
25320;DHT22;13256;49.012;8.610;2023-08-01T16:17:13;23.80;95.70
25320;DHT22;13256;49.012;8.610;2023-08-01T16:19:43;23.70;96.70
25320;DHT22;13256;49.012;8.610;2023-08-01T16:22:13;23.70;96.00
25320;DHT22;13256;49.012;8.610;2023-08-01T16:24:41;23.60;96.10
25320;DHT22;13256;49.012;8.610;2023-08-01T16:27:37;23.50;95.90
25320;DHT22;13256;49.012;8.610;2023-08-01T16:30:13;23.40;97.00
25320;DHT22;13256;49.012;8.610;2023-08-01T16:32:44;23.40;97.20
25320;DHT22;13256;49.012;8.610;2023-08-01T16:35:27;23.30;96.80
25320;DHT22;13256;49.012;8.610;2023-08-01T16:38:25;23.30;97.60
25320;DHT22;13256;49.012;8.610;2023-08-01T16:41:21;23.20;97.50
25320;DHT22;13256;49.012;8.610;2023-08-01T16:43:51;23.20;98.00
25320;DHT22;13256;49.012;8.610;2023-08-01T16:46:21;23.10;96.60
25320;DHT22;13256;49.012;8.610;2023-08-01T16:48:52;23.00;96.50
25320;DHT22;13256;49.012;8.610;2023-08-01T16:51:45;23.00;97.20
25320;DHT22;13256;49.012;8.610;2023-08-01T16:54:15;22.90;97.80
25320;DHT22;13256;49.012;8.610;2023-08-01T16:56:48;22.90;97.00
25320;DHT22;13256;49.012;8.610;2023-08-01T16:59:17;22.90;97.10
25320;DHT22;13256;49.012;8.610;2023-08-01T17:01:47;22.90;97.40
25320;DHT22;13256;49.012;8.610;2023-08-01T17:04:15;22.90;97.90
25320;DHT22;13256;49.012;8.610;2023-08-01T17:06:42;22.80;97.60